createdAt,value
2017-05-29T00:00:31.953Z,20.16
2017-05-29T00:01:32.011Z,20.11
2017-05-29T00:02:32.030Z,20.16
2017-05-29T00:03:32.069Z,20.1
2017-05-29T00:04:32.123Z,20.11
2017-05-29T00:05:32.168Z,20.12
2017-05-29T00:06:32.182Z,20.2
2017-05-29T00:07:32.232Z,20.22
2017-05-29T00:08:32.282Z,20.3
2017-05-29T00:09:32.309Z,20.4
2017-05-29T00:10:32.355Z,20.41
2017-05-29T00:11:32.369Z,20.49
2017-05-29T00:12:32.439Z,20.61
2017-05-29T00:13:32.473Z,20.6
2017-05-29T00:14:32.477Z,20.75
2017-05-29T00:15:32.545Z,20.81
2017-05-29T00:16:32.555Z,20.79
2017-05-29T00:17:32.623Z,20.79
2017-05-29T00:18:32.662Z,20.78
2017-05-29T00:19:32.691Z,20.83
2017-05-29T00:20:32.718Z,20.86
2017-05-29T00:21:32.758Z,20.85
2017-05-29T00:22:32.807Z,20.78
2017-05-29T00:23:32.846Z,20.78
2017-05-29T00:24:32.864Z,20.78
2017-05-29T00:25:32.917Z,20.68
2017-05-29T00:26:32.961Z,20.56
2017-05-29T00:27:32.973Z,20.56
2017-05-29T00:28:33.029Z,20.58
2017-05-29T00:29:33.072Z,20.41
2017-05-29T00:30:33.114Z,20.4
2017-05-29T00:31:33.157Z,20.41
2017-05-29T00:32:33.173Z,20.3
2017-05-29T00:33:33.231Z,20.32
2017-05-29T00:34:33.267Z,20.34
2017-05-29T00:35:33.294Z,20.29
2017-05-29T00:36:33.338Z,20.27
2017-05-29T00:37:33.357Z,20.25
2017-05-29T00:38:33.403Z,20.22
2017-05-29T00:39:33.455Z,20.15
2017-05-29T00:40:33.489Z,20.05
2017-05-29T00:41:33.532Z,20.07
2017-05-29T00:42:33.573Z,20.02
2017-05-29T00:43:33.605Z,20.08
2017-05-29T00:44:33.636Z,20.11
2017-05-29T00:45:33.688Z,20.07
2017-05-29T00:46:33.723Z,20.04
2017-05-29T00:47:33.757Z,20.04
2017-05-29T00:48:33.783Z,20.01
2017-05-29T00:49:33.827Z,19.87
2017-05-29T00:50:33.859Z,19.86
2017-05-29T00:51:33.902Z,19.86
2017-05-29T00:52:33.946Z,19.98
2017-05-29T00:53:33.968Z,19.97
2017-05-29T00:54:34.030Z,20.1
2017-05-29T00:55:34.046Z,20.1
2017-05-29T00:56:34.101Z,20.2
2017-05-29T00:57:34.139Z,20.25
2017-05-29T00:58:34.194Z,20.3
2017-05-29T00:59:34.197Z,20.32
2017-05-29T01:00:35.155Z,20.3
2017-05-29T01:01:34.285Z,20.38
2017-05-29T01:02:34.332Z,20.42
2017-05-29T01:03:34.369Z,20.41
2017-05-29T01:04:34.403Z,20.42
2017-05-29T01:05:34.445Z,20.44
2017-05-29T01:06:34.476Z,20.58
2017-05-29T01:07:34.498Z,20.53
2017-05-29T01:08:34.557Z,20.66
2017-05-29T01:09:34.579Z,20.58
2017-05-29T01:10:34.621Z,20.49
2017-05-29T01:11:34.667Z,20.61
2017-05-29T01:12:34.701Z,20.53
2017-05-29T01:13:34.750Z,20.56
2017-05-29T01:14:34.785Z,20.41
2017-05-29T01:15:34.787Z,20.48
2017-05-29T01:16:34.851Z,20.46
2017-05-29T01:17:34.886Z,20.41
2017-05-29T01:18:34.949Z,20.4
2017-05-29T01:19:34.984Z,20.42
2017-05-29T01:20:34.989Z,20.37
2017-05-29T01:21:35.046Z,20.34
2017-05-29T01:22:35.067Z,20.34
2017-05-29T01:23:35.130Z,20.42
2017-05-29T01:24:35.160Z,20.42
2017-05-29T01:25:35.177Z,20.38
2017-05-29T01:26:35.244Z,20.41
2017-05-29T01:27:35.271Z,20.4
2017-05-29T01:28:35.285Z,20.37
2017-05-29T01:29:35.353Z,20.29
2017-05-29T01:30:35.393Z,20.38
2017-05-29T01:31:35.428Z,20.3
2017-05-29T01:32:35.471Z,20.34
2017-05-29T01:33:35.498Z,20.35
2017-05-29T01:34:35.530Z,20.27
2017-05-29T01:35:35.572Z,20.3
2017-05-29T01:36:35.596Z,20.34
2017-05-29T01:37:35.657Z,20.38
2017-05-29T01:38:35.687Z,20.37
2017-05-29T01:39:35.730Z,20.37
2017-05-29T01:40:35.761Z,20.29
2017-05-29T01:41:35.873Z,20.4
2017-05-29T01:42:35.846Z,20.32
2017-05-29T01:43:35.886Z,20.18
2017-05-29T01:44:35.923Z,20.22
2017-05-29T01:45:35.950Z,20.19
2017-05-29T01:46:35.991Z,20.08
2017-05-29T01:47:36.019Z,20
2017-05-29T01:48:36.060Z,20.05
2017-05-29T01:49:36.090Z,20
2017-05-29T01:50:36.148Z,19.9
2017-05-29T01:51:36.187Z,19.93
2017-05-29T01:52:36.221Z,19.83
2017-05-29T01:53:36.259Z,19.79
2017-05-29T01:54:36.298Z,19.78
2017-05-29T01:55:36.313Z,19.8
2017-05-29T01:56:36.381Z,19.78
2017-05-29T01:57:36.403Z,19.67
2017-05-29T01:58:36.432Z,19.68
2017-05-29T01:59:36.500Z,19.57
2017-05-29T02:00:36.521Z,19.61
2017-05-29T02:01:36.556Z,19.57
2017-05-29T02:02:36.590Z,19.5
2017-05-29T02:03:36.639Z,19.46
2017-05-29T02:04:36.658Z,19.53
2017-05-29T02:05:36.692Z,19.49
2017-05-29T02:06:36.753Z,19.49
2017-05-29T02:07:36.792Z,19.43
2017-05-29T02:08:36.818Z,19.45
2017-05-29T02:09:36.864Z,19.35
2017-05-29T02:10:36.884Z,19.35
2017-05-29T02:11:36.934Z,19.34
2017-05-29T02:12:36.960Z,19.34
2017-05-29T02:13:37.017Z,19.24
2017-05-29T02:14:37.049Z,19.23
2017-05-29T02:15:37.085Z,19.2
2017-05-29T02:16:37.113Z,19.23
2017-05-29T02:17:37.167Z,19.23
2017-05-29T02:18:37.198Z,19.19
2017-05-29T02:19:37.237Z,19.15
2017-05-29T02:20:37.274Z,19.19
2017-05-29T02:21:37.291Z,19.19
2017-05-29T02:22:37.357Z,19.15
2017-05-29T02:23:37.399Z,19.16
2017-05-29T02:24:37.413Z,19.19
2017-05-29T02:25:37.461Z,19.15
2017-05-29T02:26:37.497Z,19.23
2017-05-29T02:27:37.540Z,19.23
2017-05-29T02:28:37.579Z,19.15
2017-05-29T02:29:37.617Z,19.05
2017-05-29T02:30:37.650Z,19.16
2017-05-29T02:31:37.693Z,19
2017-05-29T02:32:37.736Z,19.05
2017-05-29T02:33:37.766Z,19.1
2017-05-29T02:34:37.798Z,19.07
2017-05-29T02:35:37.835Z,19
2017-05-29T02:36:37.884Z,19.02
2017-05-29T02:37:37.917Z,19.1
2017-05-29T02:38:37.960Z,19
2017-05-29T02:39:37.995Z,19.02
2017-05-29T02:40:38.027Z,19.05
2017-05-29T02:41:38.027Z,19.05
2017-05-29T02:42:38.107Z,19
2017-05-29T02:43:38.133Z,18.97
2017-05-29T02:44:38.183Z,19
2017-05-29T02:45:38.186Z,19.06
2017-05-29T02:46:38.234Z,18.99
2017-05-29T02:47:38.292Z,19
2017-05-29T02:48:38.319Z,19.06
2017-05-29T02:49:38.364Z,18.97
2017-05-29T02:50:38.384Z,19.02
2017-05-29T02:51:38.438Z,18.94
2017-05-29T02:52:38.469Z,18.89
2017-05-29T02:53:38.510Z,18.87
2017-05-29T02:54:38.554Z,18.91
2017-05-29T02:55:38.590Z,18.91
2017-05-29T02:56:38.621Z,18.89
2017-05-29T02:57:38.663Z,18.87
2017-05-29T02:58:38.679Z,18.81
2017-05-29T02:59:38.739Z,18.89
2017-05-29T03:00:40.046Z,18.81
2017-05-29T03:01:38.777Z,18.84
2017-05-29T03:02:38.841Z,18.89
2017-05-29T03:03:38.888Z,18.87
2017-05-29T03:04:38.919Z,18.86
2017-05-29T03:05:38.962Z,18.89
2017-05-29T03:06:38.984Z,18.76
2017-05-29T03:07:39.046Z,18.79
2017-05-29T03:08:39.074Z,18.78
2017-05-29T03:09:39.107Z,18.89
2017-05-29T03:10:39.153Z,18.82
2017-05-29T03:11:39.186Z,18.87
2017-05-29T03:12:39.200Z,18.86
2017-05-29T03:13:39.272Z,18.9
2017-05-29T03:14:39.291Z,18.94
2017-05-29T03:15:39.405Z,18.91
2017-05-29T03:16:39.447Z,18.86
2017-05-29T03:17:39.392Z,18.86
2017-05-29T03:18:39.443Z,18.91
2017-05-29T03:19:39.466Z,18.9
2017-05-29T03:20:39.512Z,18.94
2017-05-29T03:21:39.561Z,18.9
2017-05-29T03:22:39.598Z,18.89
2017-05-29T03:23:39.595Z,18.86
2017-05-29T03:24:39.673Z,18.84
2017-05-29T03:25:39.687Z,18.89
2017-05-29T03:26:39.741Z,18.89
2017-05-29T03:27:39.784Z,19
2017-05-29T03:28:39.795Z,19
2017-05-29T03:29:39.853Z,19.07
2017-05-29T03:30:39.891Z,19.2
2017-05-29T03:31:39.931Z,19.16
2017-05-29T03:32:39.947Z,19.16
2017-05-29T03:33:40.014Z,19.3
2017-05-29T03:34:40.045Z,19.25
2017-05-29T03:35:40.078Z,19.24
2017-05-29T03:36:40.106Z,19.2
2017-05-29T03:37:40.149Z,19.27
2017-05-29T03:38:40.200Z,19.2
2017-05-29T03:39:40.221Z,19.3
2017-05-29T03:40:40.277Z,19.34
2017-05-29T03:41:40.290Z,19.34
2017-05-29T03:42:40.348Z,19.32
2017-05-29T03:43:40.383Z,19.34
2017-05-29T03:44:40.406Z,19.32
2017-05-29T03:45:40.451Z,19.28
2017-05-29T03:46:40.484Z,19.37
2017-05-29T03:47:40.524Z,19.38
2017-05-29T03:48:40.560Z,19.42
2017-05-29T03:49:40.608Z,19.47
2017-05-29T03:50:40.640Z,19.5
2017-05-29T03:51:40.680Z,19.57
2017-05-29T03:52:40.694Z,19.65
2017-05-29T03:53:40.760Z,19.63
2017-05-29T03:54:40.770Z,19.65
2017-05-29T03:55:40.807Z,19.65
2017-05-29T03:56:40.860Z,19.64
2017-05-29T03:57:40.907Z,19.7
2017-05-29T03:58:40.945Z,19.7
2017-05-29T03:59:40.968Z,19.71
2017-05-29T04:00:40.988Z,19.71
2017-05-29T04:01:41.057Z,19.78
2017-05-29T04:02:41.088Z,19.74
2017-05-29T04:03:41.133Z,19.74
2017-05-29T04:04:41.140Z,19.78
2017-05-29T04:05:41.201Z,19.75
2017-05-29T04:06:41.241Z,19.86
2017-05-29T04:07:41.291Z,19.85
2017-05-29T04:08:41.324Z,19.87
2017-05-29T04:09:41.329Z,20.02
2017-05-29T04:10:41.387Z,20.07
2017-05-29T04:11:41.426Z,20.07
2017-05-29T04:12:41.464Z,20.25
2017-05-29T04:13:41.522Z,20.35
2017-05-29T04:14:41.604Z,20.42
2017-05-29T04:15:41.571Z,20.56
2017-05-29T04:16:41.600Z,20.6
2017-05-29T04:17:41.669Z,20.78
2017-05-29T04:18:41.698Z,20.97
2017-05-29T04:19:41.725Z,21.21
2017-05-29T04:20:41.769Z,21.4
2017-05-29T04:21:41.808Z,21.7
2017-05-29T04:22:41.847Z,22.02
2017-05-29T04:23:41.881Z,22.52
2017-05-29T04:24:41.910Z,22.78
2017-05-29T04:25:41.909Z,22.97
2017-05-29T04:26:42.001Z,22.96
2017-05-29T04:27:42.023Z,22.88
2017-05-29T04:28:42.075Z,22.86
2017-05-29T04:29:42.107Z,22.79
2017-05-29T04:30:42.108Z,22.79
2017-05-29T04:31:42.190Z,22.69
2017-05-29T04:32:42.217Z,22.71
2017-05-29T04:33:42.272Z,22.64
2017-05-29T04:34:42.287Z,22.76
2017-05-29T04:35:42.327Z,22.63
2017-05-29T04:36:42.382Z,22.55
2017-05-29T04:37:42.406Z,22.64
2017-05-29T04:38:42.474Z,22.66
2017-05-29T04:39:42.508Z,22.63
2017-05-29T04:40:42.546Z,22.61
2017-05-29T04:41:42.597Z,22.59
2017-05-29T04:42:42.606Z,22.71
2017-05-29T04:43:42.659Z,22.71
2017-05-29T04:44:42.697Z,22.69
2017-05-29T04:45:42.729Z,22.81
2017-05-29T04:46:42.770Z,22.76
2017-05-29T04:47:42.808Z,22.91
2017-05-29T04:48:42.820Z,22.85
2017-05-29T04:49:42.895Z,22.92
2017-05-29T04:50:42.912Z,22.88
2017-05-29T04:51:42.969Z,22.89
2017-05-29T04:52:43.009Z,22.88
2017-05-29T04:53:43.044Z,22.82
2017-05-29T04:54:43.090Z,22.92
2017-05-29T04:55:43.122Z,22.96
2017-05-29T04:56:43.169Z,22.97
2017-05-29T04:57:43.213Z,22.92
2017-05-29T04:58:43.242Z,22.92
2017-05-29T04:59:43.290Z,22.94
2017-05-29T05:00:43.323Z,22.96
2017-05-29T05:01:43.366Z,22.99
2017-05-29T05:02:43.401Z,23
2017-05-29T05:03:43.443Z,22.92
2017-05-29T05:04:43.476Z,22.91
2017-05-29T05:05:43.510Z,23.04
2017-05-29T05:06:43.550Z,23.09
2017-05-29T05:07:43.610Z,23.06
2017-05-29T05:08:43.644Z,23.19
2017-05-29T05:09:43.674Z,23.28
2017-05-29T05:10:43.709Z,23.34
2017-05-29T05:11:43.731Z,23.38
2017-05-29T05:12:43.801Z,23.47
2017-05-29T05:13:43.826Z,23.7
2017-05-29T05:14:43.878Z,23.78
2017-05-29T05:15:43.893Z,23.99
2017-05-29T05:16:43.954Z,24.19
2017-05-29T05:17:44.008Z,24.4
2017-05-29T05:18:44.032Z,24.58
2017-05-29T05:19:44.084Z,24.82
2017-05-29T05:20:44.125Z,25.05
2017-05-29T05:21:44.159Z,25.15
2017-05-29T05:22:44.198Z,25.27
2017-05-29T05:23:44.235Z,25.26
2017-05-29T05:24:44.264Z,25.29
2017-05-29T05:25:44.274Z,25.19
2017-05-29T05:26:44.356Z,25.05
2017-05-29T05:27:44.395Z,25.09
2017-05-29T05:28:44.424Z,25
2017-05-29T05:29:44.465Z,24.97
2017-05-29T05:30:44.490Z,24.9
2017-05-29T05:31:44.548Z,24.9
2017-05-29T05:32:44.610Z,24.85
2017-05-29T05:33:44.594Z,24.67
2017-05-29T05:34:44.681Z,24.49
2017-05-29T05:35:44.703Z,24.45
2017-05-29T05:36:44.744Z,24.21
2017-05-29T05:37:44.796Z,24.12
2017-05-29T05:38:44.845Z,24.03
2017-05-29T05:39:44.876Z,23.93
2017-05-29T05:40:44.912Z,23.94
2017-05-29T05:41:44.950Z,23.89
2017-05-29T05:42:44.996Z,23.87
2017-05-29T05:43:45.056Z,23.94
2017-05-29T05:44:45.061Z,24.02
2017-05-29T05:45:45.101Z,24.18
2017-05-29T05:46:45.155Z,24.26
2017-05-29T05:47:45.205Z,24.45
2017-05-29T05:48:45.227Z,24.55
2017-05-29T05:49:45.274Z,24.9
2017-05-29T05:50:45.300Z,25.08
2017-05-29T05:51:45.350Z,25.24
2017-05-29T05:52:45.391Z,25.39
2017-05-29T05:53:45.427Z,25.51
2017-05-29T05:54:45.474Z,25.54
2017-05-29T05:55:45.522Z,25.69
2017-05-29T05:56:45.527Z,25.74
2017-05-29T05:57:45.594Z,25.84
2017-05-29T05:58:45.610Z,25.85
2017-05-29T05:59:45.668Z,25.97
2017-05-29T06:00:45.707Z,26.09
2017-05-29T06:01:45.732Z,26.24
2017-05-29T06:02:45.793Z,26.34
2017-05-29T06:03:45.832Z,26.5
2017-05-29T06:04:45.879Z,26.82
2017-05-29T06:05:45.918Z,27.15
2017-05-29T06:06:45.954Z,27.36
2017-05-29T06:07:46.002Z,27.64
2017-05-29T06:08:46.027Z,27.99
2017-05-29T06:09:46.063Z,28.24
2017-05-29T06:10:46.114Z,28.48
2017-05-29T06:11:46.152Z,28.6
2017-05-29T06:12:46.206Z,28.82
2017-05-29T06:13:46.225Z,29.03
2017-05-29T06:14:46.284Z,29.29
2017-05-29T06:15:46.311Z,29.6
2017-05-29T06:16:46.360Z,30
2017-05-29T06:17:46.405Z,31.04
2017-05-29T06:18:46.448Z,32.12
2017-05-29T06:19:46.495Z,33.5
2017-05-29T06:20:46.522Z,34.67
2017-05-29T06:21:46.568Z,35.61
2017-05-29T06:22:46.610Z,36.37
2017-05-29T06:23:46.644Z,36.8
2017-05-29T06:24:46.703Z,36.71
2017-05-29T06:25:46.736Z,36.43
2017-05-29T06:26:46.766Z,35.94
2017-05-29T06:27:46.809Z,35.61
2017-05-29T06:28:46.862Z,35.15
2017-05-29T06:29:46.916Z,34.86
2017-05-29T06:30:46.943Z,34.52
2017-05-29T06:31:47.001Z,34.17
2017-05-29T06:32:47.021Z,34.12
2017-05-29T06:33:47.089Z,34.19
2017-05-29T06:34:47.126Z,34.17
2017-05-29T06:35:47.175Z,34.48
2017-05-29T06:36:47.217Z,34.72
2017-05-29T06:37:47.245Z,34.9
2017-05-29T06:38:47.301Z,34.9
2017-05-29T06:39:47.338Z,34.96
2017-05-29T06:40:47.386Z,35.09
2017-05-29T06:41:47.453Z,35.33
2017-05-29T06:42:47.449Z,35.68
2017-05-29T06:43:47.518Z,35.99
2017-05-29T06:44:47.554Z,36.68
2017-05-29T06:45:47.615Z,37.15
2017-05-29T06:46:47.614Z,37.61
2017-05-29T06:47:47.690Z,37.94
2017-05-29T06:48:47.734Z,38.5
2017-05-29T06:49:47.791Z,39.18
2017-05-29T06:50:47.833Z,39.83
2017-05-29T06:51:47.876Z,40.47
2017-05-29T06:52:47.925Z,40.7
2017-05-29T06:53:47.949Z,40.47
2017-05-29T06:54:48.014Z,40.05
2017-05-29T06:55:48.052Z,39.57
2017-05-29T06:56:48.088Z,38.99
2017-05-29T06:57:48.118Z,38.49
2017-05-29T06:58:48.216Z,38.02
2017-05-29T06:59:48.220Z,37.74
2017-05-29T07:00:48.283Z,37.68
2017-05-29T07:01:48.326Z,37.41
2017-05-29T07:02:48.370Z,37.69
2017-05-29T07:03:48.420Z,38.12
2017-05-29T07:04:48.468Z,38.73
2017-05-29T07:05:48.513Z,39.53
2017-05-29T07:06:48.543Z,40.27
2017-05-29T07:07:48.595Z,41
2017-05-29T07:08:48.642Z,41.52
2017-05-29T07:09:48.687Z,41.87
2017-05-29T07:10:48.746Z,42.07
2017-05-29T07:11:48.768Z,41.8
2017-05-29T07:12:48.849Z,41.59
2017-05-29T07:13:48.877Z,41.45
2017-05-29T07:14:48.929Z,41.72
2017-05-29T07:15:48.949Z,41.95
2017-05-29T07:16:49.020Z,42.4
2017-05-29T07:17:49.061Z,42.73
2017-05-29T07:18:49.113Z,42.86
2017-05-29T07:19:49.143Z,42.97
2017-05-29T07:20:49.207Z,43.04
2017-05-29T07:21:49.220Z,43.19
2017-05-29T07:22:49.305Z,43.69
2017-05-29T07:23:49.344Z,44.15
2017-05-29T07:24:49.393Z,43.99
2017-05-29T07:25:49.430Z,43.44
2017-05-29T07:26:49.481Z,43.07
2017-05-29T07:27:49.540Z,42.63
2017-05-29T07:28:49.587Z,42.4
2017-05-29T07:29:49.628Z,42.54
2017-05-29T07:30:49.667Z,42.73
2017-05-29T07:31:49.704Z,42.66
2017-05-29T07:32:49.766Z,42.49
2017-05-29T07:33:49.818Z,42.48
2017-05-29T07:34:49.863Z,42.9
2017-05-29T07:35:49.910Z,43.49
2017-05-29T07:36:49.959Z,44.03
2017-05-29T07:37:50.016Z,44.56
2017-05-29T07:38:50.048Z,44.99
2017-05-29T07:39:50.101Z,45.28
2017-05-29T07:40:50.138Z,45.44
2017-05-29T07:41:50.188Z,45.25
2017-05-29T07:42:50.253Z,44.95
2017-05-29T07:43:50.287Z,44.92
2017-05-29T07:44:50.345Z,45.22
2017-05-29T07:45:50.383Z,45.53
2017-05-29T07:46:50.438Z,45.84
2017-05-29T07:47:50.484Z,46.05
2017-05-29T07:48:50.542Z,46.23
2017-05-29T07:49:50.584Z,46.24
2017-05-29T07:50:50.642Z,46.35
2017-05-29T07:51:50.679Z,46.38
2017-05-29T07:52:50.730Z,46.43
2017-05-29T07:53:50.776Z,46.4
2017-05-29T07:54:50.828Z,46.61
2017-05-29T07:55:50.853Z,46.9
2017-05-29T07:56:50.922Z,47.07
2017-05-29T07:57:50.960Z,47.42
2017-05-29T07:58:51.024Z,47.63
2017-05-29T07:59:51.185Z,47.84
2017-05-29T08:00:51.273Z,47.85
2017-05-29T08:01:51.141Z,47.84
2017-05-29T08:02:51.211Z,48.02
2017-05-29T08:03:51.263Z,47.94
2017-05-29T08:04:51.303Z,47.88
2017-05-29T08:05:51.358Z,47.75
2017-05-29T08:06:51.421Z,47.69
2017-05-29T08:07:51.465Z,47.53
2017-05-29T08:08:51.521Z,47.34
2017-05-29T08:09:51.565Z,47.31
2017-05-29T08:10:51.616Z,47.51
2017-05-29T08:11:51.641Z,47.7
2017-05-29T08:12:51.717Z,47.78
2017-05-29T08:13:51.764Z,48.03
2017-05-29T08:14:51.816Z,48.28
2017-05-29T08:15:51.850Z,48.34
2017-05-29T08:16:51.914Z,48.59
2017-05-29T08:17:51.943Z,48.42
2017-05-29T08:18:52.019Z,48.11
2017-05-29T08:19:52.045Z,47.7
2017-05-29T08:20:52.119Z,47.33
2017-05-29T08:21:52.152Z,47.26
2017-05-29T08:22:52.225Z,47.24
2017-05-29T08:23:52.250Z,47.49
2017-05-29T08:24:52.324Z,47.61
2017-05-29T08:25:52.359Z,47.81
2017-05-29T08:26:52.411Z,47.9
2017-05-29T08:27:52.475Z,48.22
2017-05-29T08:28:52.538Z,48.47
2017-05-29T08:29:52.569Z,48.66
2017-05-29T08:30:52.629Z,48.56
2017-05-29T08:31:52.675Z,48.73
2017-05-29T08:32:52.725Z,48.84
2017-05-29T08:33:52.776Z,49.06
2017-05-29T08:34:52.823Z,49.23
2017-05-29T08:35:52.873Z,49.34
2017-05-29T08:36:52.933Z,49.26
2017-05-29T08:37:52.964Z,49.27
2017-05-29T08:38:53.042Z,49.17
2017-05-29T08:39:53.096Z,48.85
2017-05-29T08:40:53.142Z,48.78
2017-05-29T08:41:53.197Z,48.49
2017-05-29T08:42:53.255Z,48.07
2017-05-29T08:43:53.301Z,47.42
2017-05-29T08:44:53.349Z,46.66
2017-05-29T08:45:53.389Z,46.18
2017-05-29T08:46:53.448Z,46.2
2017-05-29T08:47:53.502Z,46.35
2017-05-29T08:48:53.576Z,46.66
2017-05-29T08:49:53.604Z,46.66
2017-05-29T08:50:53.713Z,46.43
2017-05-29T08:51:53.703Z,45.91
2017-05-29T08:52:53.760Z,45.31
2017-05-29T08:53:53.805Z,45.28
2017-05-29T08:54:53.860Z,45.74
2017-05-29T08:55:53.909Z,46.47
2017-05-29T08:56:53.962Z,47.02
2017-05-29T08:57:54.011Z,47.29
2017-05-29T08:58:54.055Z,47.46
2017-05-29T08:59:54.115Z,47.7
2017-05-29T09:00:54.162Z,47.78
2017-05-29T09:01:54.189Z,48.14
2017-05-29T09:02:54.287Z,48.41
2017-05-29T09:03:54.320Z,48.84
2017-05-29T09:04:54.366Z,49.23
2017-05-29T09:05:54.427Z,49.63
2017-05-29T09:06:54.470Z,49.8
2017-05-29T09:07:54.528Z,49.83
2017-05-29T09:08:54.557Z,49.87
2017-05-29T09:09:54.636Z,49.98
2017-05-29T09:10:54.685Z,49.96
2017-05-29T09:11:54.739Z,49.84
2017-05-29T09:12:54.788Z,49.63
2017-05-29T09:13:54.844Z,49.27
2017-05-29T09:14:54.906Z,49.3
2017-05-29T09:15:54.955Z,49.32
2017-05-29T09:16:55.014Z,49.15
2017-05-29T09:17:55.060Z,49.01
2017-05-29T09:18:55.104Z,48.72
2017-05-29T09:19:55.170Z,48.61
2017-05-29T09:20:55.217Z,48.85
2017-05-29T09:21:55.273Z,49.26
2017-05-29T09:22:55.320Z,49.77
2017-05-29T09:23:55.377Z,50.15
2017-05-29T09:24:55.428Z,50.35
2017-05-29T09:25:55.469Z,50.52
2017-05-29T09:26:55.535Z,50.38
2017-05-29T09:27:55.574Z,50.43
2017-05-29T09:28:55.640Z,50.27
2017-05-29T09:29:55.695Z,50.01
2017-05-29T09:30:55.729Z,49.68
2017-05-29T09:31:55.797Z,49.3
2017-05-29T09:32:55.860Z,49.25
2017-05-29T09:33:55.913Z,49.39
2017-05-29T09:34:55.977Z,49.58
2017-05-29T09:35:56.029Z,49.79
2017-05-29T09:36:56.075Z,49.87
2017-05-29T09:37:56.131Z,49.91
2017-05-29T09:38:56.181Z,49.98
2017-05-29T09:39:56.215Z,50.05
2017-05-29T09:40:56.291Z,50.01
2017-05-29T09:41:56.359Z,49.98
2017-05-29T09:42:56.369Z,49.44
2017-05-29T09:43:56.449Z,49.06
2017-05-29T09:44:56.492Z,48.91
2017-05-29T09:45:56.566Z,48.94
2017-05-29T09:46:56.622Z,49.01
2017-05-29T09:47:56.680Z,49.01
2017-05-29T09:48:56.721Z,49.14
2017-05-29T09:49:56.791Z,49.44
2017-05-29T09:50:56.835Z,49.63
2017-05-29T09:51:56.886Z,49.65
2017-05-29T09:52:56.942Z,49.64
2017-05-29T09:53:56.995Z,49.55
2017-05-29T09:54:57.050Z,49.52
2017-05-29T09:55:57.112Z,49.49
2017-05-29T09:56:57.158Z,49.45
2017-05-29T09:57:57.216Z,49.44
2017-05-29T09:58:57.279Z,49.32
2017-05-29T09:59:57.307Z,49.1
2017-05-29T10:00:57.379Z,48.95
2017-05-29T10:01:57.437Z,48.6
2017-05-29T10:02:57.493Z,48.21
2017-05-29T10:03:57.529Z,47.8
2017-05-29T10:04:57.595Z,47.8
2017-05-29T10:05:57.648Z,47.56
2017-05-29T10:06:57.703Z,47.14
2017-05-29T10:07:57.759Z,46.7
2017-05-29T10:08:57.799Z,46.47
2017-05-29T10:09:57.863Z,46.36
2017-05-29T10:10:57.911Z,46.13
2017-05-29T10:11:57.963Z,46.05
2017-05-29T10:12:57.986Z,45.91
2017-05-29T10:13:58.064Z,45.57
2017-05-29T10:14:58.110Z,45.22
2017-05-29T10:15:58.178Z,45.09
2017-05-29T10:16:58.232Z,44.95
2017-05-29T10:17:58.282Z,44.83
2017-05-29T10:18:58.332Z,45.03
2017-05-29T10:19:58.367Z,44.81
2017-05-29T10:20:58.427Z,44.61
2017-05-29T10:21:58.489Z,44.19
2017-05-29T10:22:58.522Z,43.78
2017-05-29T10:23:58.577Z,43.49
2017-05-29T10:24:58.618Z,43.3
2017-05-29T10:25:58.690Z,43.23
2017-05-29T10:26:58.728Z,43.33
2017-05-29T10:27:58.792Z,43.49
2017-05-29T10:28:58.813Z,43.61
2017-05-29T10:29:58.878Z,43.43
2017-05-29T10:30:58.923Z,43.16
2017-05-29T10:31:58.975Z,43.01
2017-05-29T10:32:59.001Z,42.64
2017-05-29T10:33:59.071Z,42.61
2017-05-29T10:34:59.120Z,42.9
2017-05-29T10:35:59.185Z,43.07
2017-05-29T10:36:59.218Z,43.36
2017-05-29T10:37:59.273Z,43.83
2017-05-29T10:38:59.313Z,44.46
2017-05-29T10:39:59.427Z,44.94
2017-05-29T10:40:59.498Z,45.84
2017-05-29T10:41:59.458Z,46.04
2017-05-29T10:42:59.484Z,45.94
2017-05-29T10:43:59.549Z,45.82
2017-05-29T10:44:59.609Z,45.91
2017-05-29T10:45:59.885Z,46.26
2017-05-29T10:46:59.693Z,46.69
2017-05-29T10:47:59.736Z,46.85
2017-05-29T10:48:59.789Z,46.86
2017-05-29T10:49:59.815Z,46.51
2017-05-29T10:51:00.030Z,46.04
2017-05-29T10:51:59.927Z,45.48
2017-05-29T10:52:59.963Z,45.03
2017-05-29T10:54:00.020Z,44.5
2017-05-29T10:55:00.067Z,43.96
2017-05-29T10:56:00.121Z,43.51
2017-05-29T10:57:00.122Z,43.44
2017-05-29T10:58:00.215Z,43.84
2017-05-29T10:59:00.244Z,43.97
2017-05-29T11:00:00.293Z,44.55
2017-05-29T11:01:00.336Z,45.07
2017-05-29T11:02:00.395Z,45.55
2017-05-29T11:03:00.435Z,45.84
2017-05-29T11:04:00.487Z,46.14
2017-05-29T11:05:00.521Z,46.28
2017-05-29T11:06:00.572Z,46.38
2017-05-29T11:07:00.625Z,46.43
2017-05-29T11:08:00.650Z,46.45
2017-05-29T11:09:00.714Z,46.42
2017-05-29T11:10:00.746Z,46.47
2017-05-29T11:11:00.796Z,46.61
2017-05-29T11:12:00.810Z,46.69
2017-05-29T11:13:00.883Z,46.76
2017-05-29T11:14:00.985Z,46.86
2017-05-29T11:15:01.048Z,46.89
2017-05-29T11:16:01.046Z,46.73
2017-05-29T11:17:01.069Z,46.66
2017-05-29T11:18:01.111Z,46.52
2017-05-29T11:19:01.156Z,46.43
2017-05-29T11:20:01.200Z,46.36
2017-05-29T11:21:01.246Z,46.14
2017-05-29T11:22:01.275Z,46.23
2017-05-29T11:23:01.331Z,46.28
2017-05-29T11:24:01.347Z,46.2
2017-05-29T11:25:01.412Z,46.14
2017-05-29T11:26:01.471Z,46
2017-05-29T11:27:01.520Z,45.81
2017-05-29T11:28:01.542Z,45.16
2017-05-29T11:29:01.610Z,44.12
2017-05-29T11:30:01.629Z,42.97
2017-05-29T11:31:01.689Z,41.66
2017-05-29T11:32:01.717Z,40.34
2017-05-29T11:33:01.777Z,39.45
2017-05-29T11:34:01.827Z,38.56
2017-05-29T11:35:01.869Z,37.81
2017-05-29T11:36:01.918Z,37.23
2017-05-29T11:37:01.946Z,36.49
2017-05-29T11:38:01.998Z,35.96
2017-05-29T11:39:02.043Z,35.53
2017-05-29T11:40:02.089Z,35.08
2017-05-29T11:41:02.146Z,34.77
2017-05-29T11:42:02.173Z,34.39
2017-05-29T11:43:02.221Z,34.06
2017-05-29T11:44:02.268Z,33.89
2017-05-29T11:45:02.312Z,33.73
2017-05-29T11:46:02.336Z,33.52
2017-05-29T11:47:02.398Z,33.4
2017-05-29T11:48:02.441Z,33.18
2017-05-29T11:49:02.489Z,33.09
2017-05-29T11:50:02.709Z,33.02
2017-05-29T11:51:02.561Z,32.87
2017-05-29T11:52:02.600Z,32.9
2017-05-29T11:53:02.636Z,32.68
2017-05-29T11:54:02.702Z,32.62
2017-05-29T11:55:02.744Z,32.35
2017-05-29T11:56:02.761Z,32.03
2017-05-29T11:57:02.834Z,31.94
2017-05-29T11:58:02.859Z,31.88
2017-05-29T11:59:02.919Z,31.91
2017-05-29T12:00:02.963Z,31.77
2017-05-29T12:01:03.007Z,31.8
2017-05-29T12:02:03.038Z,31.77
2017-05-29T12:03:03.092Z,31.77
2017-05-29T12:04:03.138Z,31.81
2017-05-29T12:05:03.185Z,31.86
2017-05-29T12:06:03.237Z,31.82
2017-05-29T12:07:03.265Z,31.88
2017-05-29T12:08:03.317Z,31.74
2017-05-29T12:09:03.349Z,31.75
2017-05-29T12:10:03.394Z,31.74
2017-05-29T12:11:03.432Z,31.62
2017-05-29T12:12:03.450Z,31.68
2017-05-29T12:13:03.527Z,31.7
2017-05-29T12:14:03.565Z,31.53
2017-05-29T12:15:03.626Z,31.45
2017-05-29T12:16:03.649Z,31.45
2017-05-29T12:17:03.682Z,31.47
2017-05-29T12:18:03.739Z,31.38
2017-05-29T12:19:03.752Z,31.34
2017-05-29T12:20:03.817Z,31.37
2017-05-29T12:21:03.851Z,31.23
2017-05-29T12:22:03.904Z,31.18
2017-05-29T12:23:03.944Z,31.13
2017-05-29T12:24:03.969Z,31.12
2017-05-29T12:25:04.036Z,31.18
2017-05-29T12:26:04.080Z,31.3
2017-05-29T12:27:04.110Z,31.23
2017-05-29T12:28:04.147Z,31.22
2017-05-29T12:29:04.201Z,31.19
2017-05-29T12:30:04.228Z,31.25
2017-05-29T12:31:04.287Z,31.21
2017-05-29T12:32:04.334Z,31.19
2017-05-29T12:33:04.368Z,31.18
2017-05-29T12:34:04.411Z,31.04
2017-05-29T12:35:04.436Z,31.1
2017-05-29T12:36:04.497Z,31.07
2017-05-29T12:37:04.547Z,31.1
2017-05-29T12:38:04.587Z,31.12
2017-05-29T12:39:04.635Z,30.97
2017-05-29T12:40:04.672Z,31.07
2017-05-29T12:41:04.712Z,30.89
2017-05-29T12:42:04.746Z,30.88
2017-05-29T12:43:04.791Z,30.84
2017-05-29T12:44:04.843Z,30.84
2017-05-29T12:45:04.865Z,30.79
2017-05-29T12:46:04.926Z,30.89
2017-05-29T12:47:04.943Z,30.84
2017-05-29T12:48:04.986Z,30.86
2017-05-29T12:49:05.037Z,30.84
2017-05-29T12:50:05.101Z,30.79
2017-05-29T12:51:05.146Z,30.79
2017-05-29T12:52:05.166Z,30.82
2017-05-29T12:53:05.224Z,30.86
2017-05-29T12:54:05.256Z,30.88
2017-05-29T12:55:05.321Z,30.91
2017-05-29T12:56:05.356Z,30.78
2017-05-29T12:57:05.389Z,30.86